createdAt,value
2022-08-22T00:03:16.334Z,20.76
2022-08-22T00:05:49.207Z,20.71
2022-08-22T00:08:58.952Z,20.69
2022-08-22T00:12:09.289Z,20.67
2022-08-22T00:14:51.564Z,20.61
2022-08-22T00:17:49.888Z,20.61
2022-08-22T00:20:41.933Z,20.60
2022-08-22T00:23:31.260Z,20.60
2022-08-22T00:26:04.474Z,20.56
2022-08-22T00:28:38.867Z,20.51
2022-08-22T00:31:32.003Z,20.48
2022-08-22T00:34:05.205Z,20.46
2022-08-22T00:36:51.653Z,20.43
2022-08-22T00:39:32.858Z,20.40
2022-08-22T00:42:31.508Z,20.35
2022-08-22T00:45:17.939Z,20.27
2022-08-22T00:48:03.105Z,20.24
2022-08-22T00:50:49.688Z,20.23
2022-08-22T00:53:31.119Z,20.22
2022-08-22T00:56:04.669Z,20.21
2022-08-22T00:59:00.952Z,20.21
2022-08-22T01:02:11.516Z,20.17
2022-08-22T01:05:16.793Z,20.12
2022-08-22T01:08:22.626Z,20.11
2022-08-22T01:11:20.128Z,20.12
2022-08-22T01:14:13.195Z,20.07
2022-08-22T01:17:02.061Z,20.03
2022-08-22T01:20:01.102Z,20.01
2022-08-22T01:23:01.137Z,20.02
2022-08-22T01:25:43.571Z,20.01
2022-08-22T01:28:33.751Z,20.03
2022-08-22T01:31:09.858Z,20.01
2022-08-22T01:34:14.263Z,20.01
2022-08-22T01:37:12.448Z,20.00
2022-08-22T01:39:48.799Z,19.97
2022-08-22T01:42:35.540Z,19.95
2022-08-22T01:45:14.788Z,19.91
2022-08-22T01:48:00.452Z,19.90
2022-08-22T01:50:41.396Z,19.87
2022-08-22T01:53:15.513Z,19.85
2022-08-22T01:55:48.387Z,19.83
2022-08-22T01:58:25.375Z,19.77
2022-08-22T02:01:14.361Z,19.70
2022-08-22T02:04:00.768Z,19.67
2022-08-22T02:06:53.101Z,19.61
2022-08-22T02:09:35.369Z,19.58
2022-08-22T02:12:13.906Z,19.56
2022-08-22T02:15:14.199Z,19.54
2022-08-22T02:18:12.637Z,19.57
2022-08-22T02:20:48.729Z,19.57
2022-08-22T02:23:33.985Z,19.54
2022-08-22T02:26:04.138Z,19.53
2022-08-22T02:28:57.335Z,19.51
2022-08-22T02:32:07.241Z,19.50
2022-08-22T02:34:50.147Z,19.51
2022-08-22T02:37:35.490Z,19.51
2022-08-22T02:40:13.003Z,19.45
2022-08-22T02:42:45.755Z,19.44
2022-08-22T02:45:18.823Z,19.45
2022-08-22T02:47:59.794Z,19.39
2022-08-22T02:50:52.221Z,19.40
2022-08-22T02:53:47.533Z,19.40
2022-08-22T02:56:41.417Z,19.40
2022-08-22T02:59:27.586Z,19.35
2022-08-22T03:01:56.366Z,19.33
2022-08-22T03:04:32.460Z,19.32
2022-08-22T03:07:36.650Z,19.33
2022-08-22T03:10:12.945Z,19.30
2022-08-22T03:12:42.853Z,19.28
2022-08-22T03:15:26.074Z,19.27
2022-08-22T03:17:59.966Z,19.26
2022-08-22T03:20:54.899Z,19.23
2022-08-22T03:23:42.120Z,19.21
2022-08-22T03:26:24.282Z,19.21
2022-08-22T03:28:59.721Z,19.21
2022-08-22T03:31:29.568Z,19.19
2022-08-22T03:34:21.571Z,19.19
2022-08-22T03:37:19.599Z,19.15
2022-08-22T03:40:08.409Z,19.14
2022-08-22T03:43:23.444Z,19.13
2022-08-22T03:46:17.819Z,19.10
2022-08-22T03:49:00.634Z,19.06
2022-08-22T03:51:41.070Z,19.01
2022-08-22T03:54:26.695Z,18.97
2022-08-22T03:57:31.116Z,18.93
2022-08-22T04:00:12.893Z,18.94
2022-08-22T04:02:42.765Z,18.99
2022-08-22T04:05:39.779Z,19.03
2022-08-22T04:08:29.432Z,19.04
2022-08-22T04:11:42.948Z,19.07
2022-08-22T04:14:24.357Z,19.09
2022-08-22T04:17:01.484Z,19.12
2022-08-22T04:19:57.071Z,19.12
2022-08-22T04:22:33.686Z,19.12
2022-08-22T04:25:09.241Z,19.12
2022-08-22T04:27:56.158Z,19.13
2022-08-22T04:30:45.710Z,19.15
2022-08-22T04:33:24.845Z,19.16
2022-08-22T04:35:52.429Z,19.14
2022-08-22T04:38:31.337Z,19.13
2022-08-22T04:41:22.287Z,19.12
2022-08-22T04:43:55.926Z,19.08
2022-08-22T04:46:41.272Z,19.09
2022-08-22T04:49:16.057Z,19.06
2022-08-22T04:51:52.383Z,19.04
2022-08-22T04:55:00.126Z,19.02
2022-08-22T04:57:27.281Z,18.98
2022-08-22T05:00:00.409Z,18.91
2022-08-22T05:02:28.365Z,18.90
2022-08-22T05:05:05.078Z,18.90
2022-08-22T05:07:46.371Z,18.94
2022-08-22T05:10:33.667Z,18.95
2022-08-22T05:13:12.417Z,18.94
2022-08-22T05:15:47.152Z,18.94
2022-08-22T05:18:23.203Z,18.95
2022-08-22T05:20:54.219Z,18.90
2022-08-22T05:23:43.601Z,18.91
2022-08-22T05:26:13.757Z,18.92
2022-08-22T05:29:05.114Z,18.91
2022-08-22T05:31:47.449Z,18.90
2022-08-22T05:34:19.898Z,18.87
2022-08-22T05:36:56.316Z,18.89
2022-08-22T05:39:28.095Z,18.90
2022-08-22T05:41:58.306Z,18.92
2022-08-22T05:44:33.024Z,18.95
2022-08-22T05:47:40.346Z,18.97
2022-08-22T05:50:20.196Z,18.96
2022-08-22T05:53:06.507Z,18.97
2022-08-22T05:55:39.332Z,18.98
2022-08-22T05:58:35.943Z,18.97
2022-08-22T06:01:38.094Z,18.96
2022-08-22T06:04:10.220Z,18.96
2022-08-22T06:07:18.937Z,19.00
2022-08-22T06:09:48.597Z,19.03
2022-08-22T06:12:28.050Z,19.05
2022-08-22T06:15:12.747Z,19.10
2022-08-22T06:17:49.911Z,19.11
2022-08-22T06:20:24.400Z,19.10
2022-08-22T06:22:58.889Z,19.11
2022-08-22T06:25:30.567Z,19.10
2022-08-22T06:28:01.892Z,19.12
2022-08-22T06:30:30.028Z,19.14
2022-08-22T06:33:05.808Z,19.17
2022-08-22T06:36:09.629Z,19.17
2022-08-22T06:39:21.470Z,19.16
2022-08-22T06:42:03.100Z,19.19
2022-08-22T06:44:40.231Z,19.22
2022-08-22T06:47:11.655Z,19.23
2022-08-22T06:49:40.852Z,19.27
2022-08-22T06:52:13.057Z,19.29
2022-08-22T06:54:46.800Z,19.35
2022-08-22T06:57:37.486Z,19.38
2022-08-22T07:00:13.658Z,19.39
2022-08-22T07:02:46.955Z,19.38
2022-08-22T07:05:24.016Z,19.39
2022-08-22T07:07:52.761Z,19.42
2022-08-22T07:10:22.815Z,19.46
2022-08-22T07:12:53.686Z,19.50
2022-08-22T07:15:40.073Z,19.55
2022-08-22T07:18:18.482Z,19.60
2022-08-22T07:20:55.084Z,19.63
2022-08-22T07:23:31.939Z,19.67
2022-08-22T07:26:17.683Z,19.72
2022-08-22T07:28:51.574Z,19.76
2022-08-22T07:31:40.959Z,19.82
2022-08-22T07:34:16.908Z,19.86
2022-08-22T07:37:01.893Z,19.92
2022-08-22T07:40:14.046Z,19.98
2022-08-22T07:42:51.597Z,20.00
2022-08-22T07:45:21.386Z,20.03
2022-08-22T07:48:25.120Z,20.07
2022-08-22T07:51:01.226Z,20.12
2022-08-22T07:53:34.524Z,20.18
2022-08-22T07:56:05.880Z,20.28
2022-08-22T07:58:41.244Z,20.34
2022-08-22T08:01:11.742Z,20.39
2022-08-22T08:03:39.447Z,20.43
2022-08-22T08:06:11.347Z,20.45
2022-08-22T08:08:44.544Z,20.48
2022-08-22T08:11:15.213Z,20.49
2022-08-22T08:13:46.416Z,20.53
2022-08-22T08:16:19.893Z,20.62
2022-08-22T08:18:50.287Z,20.67
2022-08-22T08:21:28.744Z,20.76
2022-08-22T08:23:57.322Z,20.83
2022-08-22T08:27:00.275Z,20.89
2022-08-22T08:29:27.563Z,20.96
2022-08-22T08:31:55.387Z,20.97
2022-08-22T08:34:26.020Z,20.98
2022-08-22T08:37:17.440Z,21.02
2022-08-22T08:40:01.558Z,21.03
2022-08-22T08:43:05.911Z,21.06
2022-08-22T08:46:08.553Z,21.08
2022-08-22T08:48:55.663Z,21.06
2022-08-22T08:51:56.404Z,21.09
2022-08-22T08:54:26.502Z,21.12
2022-08-22T08:57:15.521Z,21.17
2022-08-22T08:59:50.831Z,21.21
2022-08-22T09:02:50.810Z,21.22
2022-08-22T09:05:29.787Z,21.25
2022-08-22T09:08:23.144Z,21.30
2022-08-22T09:11:09.816Z,21.33
2022-08-22T09:13:55.895Z,21.37
2022-08-22T09:16:51.243Z,21.40
2022-08-22T09:19:46.298Z,21.46
2022-08-22T09:25:39.904Z,21.56
2022-08-22T09:28:32.581Z,21.65
2022-08-22T09:31:32.950Z,21.77
2022-08-22T09:34:38.159Z,21.90
2022-08-22T09:37:29.983Z,21.97
2022-08-22T09:40:06.554Z,22.00
2022-08-22T09:40:16.276Z,21.51
2022-08-22T09:43:10.887Z,22.03
2022-08-22T09:45:40.753Z,22.06
2022-08-22T09:48:23.786Z,22.07
2022-08-22T09:51:32.325Z,22.09
2022-08-22T09:57:01.182Z,22.15
2022-08-22T09:59:44.946Z,22.19
2022-08-22T10:02:23.624Z,22.23
2022-08-22T10:04:59.538Z,22.24
2022-08-22T10:07:48.086Z,22.24
2022-08-22T10:10:47.738Z,22.22
2022-08-22T10:13:57.644Z,22.21
2022-08-22T10:16:33.956Z,22.18
2022-08-22T10:19:38.154Z,22.15
2022-08-22T10:22:19.882Z,22.12
2022-08-22T10:25:10.321Z,22.08
2022-08-22T10:27:40.294Z,22.06
2022-08-22T10:30:13.379Z,22.08
2022-08-22T10:33:08.494Z,22.13
2022-08-22T10:36:01.138Z,22.16
2022-08-22T10:38:43.925Z,22.17
2022-08-22T10:41:36.533Z,22.15
2022-08-22T10:44:34.479Z,22.09
2022-08-22T10:47:15.391Z,22.05
2022-08-22T10:49:57.649Z,22.02
2022-08-22T10:52:34.222Z,21.97
2022-08-22T10:55:25.743Z,21.96
2022-08-22T10:58:00.276Z,21.95
2022-08-22T11:00:50.076Z,21.96
2022-08-22T11:03:23.450Z,21.97
2022-08-22T11:05:54.822Z,21.94
2022-08-22T11:08:37.190Z,21.96
2022-08-22T11:11:06.934Z,21.99
2022-08-22T11:13:58.215Z,22.01
2022-08-22T11:16:55.405Z,22.01
2022-08-22T11:19:22.994Z,22.06
2022-08-22T11:22:07.456Z,22.11
2022-08-22T11:25:11.380Z,22.18
2022-08-22T11:28:05.932Z,22.23
2022-08-22T11:30:48.335Z,22.25
2022-08-22T11:33:47.108Z,22.25
2022-08-22T11:36:51.363Z,22.27
2022-08-22T11:39:21.778Z,22.27
2022-08-22T11:41:54.655Z,22.26
2022-08-22T11:44:29.912Z,22.25
2022-08-22T11:46:59.417Z,22.25
2022-08-22T11:49:41.689Z,22.22
2022-08-22T11:52:21.662Z,22.20
2022-08-22T11:55:20.064Z,22.21
2022-08-22T11:57:56.565Z,22.25
2022-08-22T12:00:45.938Z,22.26
2022-08-22T12:03:31.310Z,22.27
2022-08-22T12:06:08.391Z,22.28
2022-08-22T12:08:40.939Z,22.29
2022-08-22T12:11:16.393Z,22.30
2022-08-22T12:14:05.948Z,22.32
2022-08-22T12:17:05.979Z,22.33
2022-08-22T12:20:05.626Z,22.33
2022-08-22T12:22:50.195Z,22.37
2022-08-22T12:25:38.648Z,22.38
2022-08-22T12:28:36.400Z,22.40
2022-08-22T12:31:47.236Z,22.46
2022-08-22T12:34:29.543Z,22.50
2022-08-22T12:37:17.004Z,22.51
2022-08-22T12:39:55.301Z,22.50
2022-08-22T12:42:43.290Z,22.49
2022-08-22T12:45:23.412Z,22.49
2022-08-22T12:48:14.418Z,22.52
2022-08-22T12:50:52.082Z,22.56
2022-08-22T12:53:27.998Z,22.58
2022-08-22T12:56:21.542Z,22.61
2022-08-22T12:59:04.358Z,22.60
2022-08-22T13:01:40.191Z,22.62
2022-08-22T13:04:33.248Z,22.63
2022-08-22T13:07:01.073Z,22.66
2022-08-22T13:09:37.873Z,22.68
2022-08-22T13:12:32.088Z,22.69
2022-08-22T13:15:10.926Z,22.71
2022-08-22T13:17:38.132Z,22.69
2022-08-22T13:20:20.676Z,22.69
2022-08-22T13:22:47.892Z,22.70
2022-08-22T13:25:25.832Z,22.73
2022-08-22T13:28:04.111Z,22.75
2022-08-22T13:30:49.457Z,22.78
2022-08-22T13:33:26.168Z,22.81
2022-08-22T13:35:56.824Z,22.84
2022-08-22T13:38:28.108Z,22.88
2022-08-22T13:40:58.036Z,22.92
2022-08-22T13:43:30.432Z,22.92
2022-08-22T13:46:01.971Z,22.93
2022-08-22T13:48:50.839Z,22.95
2022-08-22T13:51:40.347Z,22.91
2022-08-22T13:54:11.230Z,22.90
2022-08-22T13:56:47.430Z,22.86
2022-08-22T13:59:51.701Z,22.83
2022-08-22T14:02:31.024Z,22.82
2022-08-22T14:05:06.565Z,22.75
2022-08-22T14:07:40.803Z,22.70
2022-08-22T14:10:14.770Z,22.68
2022-08-22T14:12:57.703Z,22.68
2022-08-22T14:15:45.497Z,22.66
2022-08-22T14:18:31.819Z,22.68
2022-08-22T14:21:27.556Z,22.69
2022-08-22T14:23:59.837Z,22.68
2022-08-22T14:26:32.922Z,22.67
2022-08-22T14:29:08.224Z,22.68
2022-08-22T14:31:35.487Z,22.71
2022-08-22T14:34:10.578Z,22.70
2022-08-22T14:36:55.202Z,22.71
2022-08-22T14:39:31.859Z,22.74
2022-08-22T14:42:10.262Z,22.75
2022-08-22T14:45:06.799Z,22.76
2022-08-22T14:47:55.320Z,22.74
2022-08-22T14:50:53.096Z,22.76
2022-08-22T14:53:19.983Z,22.75
2022-08-22T14:56:04.254Z,22.80
2022-08-22T14:58:45.889Z,22.81
2022-08-22T15:01:16.570Z,22.83
2022-08-22T15:03:51.315Z,22.86
2022-08-22T15:06:48.070Z,22.88
2022-08-22T15:09:40.567Z,22.91
2022-08-22T15:12:22.251Z,22.93
2022-08-22T15:14:53.255Z,22.96
2022-08-22T15:17:51.143Z,22.99
2022-08-22T15:20:28.670Z,22.98
2022-08-22T15:23:09.869Z,22.98
2022-08-22T15:25:41.339Z,23.00
2022-08-22T15:28:17.203Z,23.02
2022-08-22T15:31:03.500Z,23.05
2022-08-22T15:33:39.316Z,23.06
2022-08-22T15:36:21.384Z,23.08
2022-08-22T15:38:54.086Z,23.06
2022-08-22T15:41:35.947Z,23.05
2022-08-22T15:44:06.526Z,23.07
2022-08-22T15:46:43.859Z,23.07
2022-08-22T15:49:19.797Z,23.11
2022-08-22T15:52:01.998Z,23.12
2022-08-22T15:54:51.342Z,23.13
2022-08-22T15:57:21.293Z,23.15
2022-08-22T15:59:54.250Z,23.17
2022-08-22T16:02:35.661Z,23.20
2022-08-22T16:05:11.621Z,23.22
2022-08-22T16:07:40.714Z,23.19
2022-08-22T16:10:28.344Z,23.19
2022-08-22T16:13:32.285Z,23.19
2022-08-22T16:16:10.867Z,23.19
2022-08-22T16:18:37.691Z,23.18
2022-08-22T16:21:18.058Z,23.17
2022-08-22T16:23:51.728Z,23.17
2022-08-22T16:26:30.279Z,23.17
2022-08-22T16:29:17.821Z,23.16
2022-08-22T16:31:45.046Z,23.15
2022-08-22T16:34:18.103Z,23.15
2022-08-22T16:37:18.266Z,23.14
2022-08-22T16:39:49.959Z,23.15
2022-08-22T16:42:19.632Z,23.14
2022-08-22T16:45:11.023Z,23.13
2022-08-22T16:47:54.540Z,23.13
2022-08-22T16:51:00.490Z,23.13
2022-08-22T16:53:30.439Z,23.12
2022-08-22T16:56:10.446Z,23.10
2022-08-22T16:58:56.995Z,23.08
2022-08-22T17:01:43.050Z,23.06
2022-08-22T17:05:04.385Z,23.05
2022-08-22T17:07:50.718Z,22.98
2022-08-22T17:10:29.410Z,22.96
2022-08-22T17:13:08.558Z,22.94
2022-08-22T17:15:40.508Z,22.90
2022-08-22T17:18:34.846Z,22.87
2022-08-22T17:21:15.230Z,22.92
2022-08-22T17:24:00.896Z,22.94
2022-08-22T17:26:33.370Z,22.91
2022-08-22T17:29:15.210Z,22.90
2022-08-22T17:31:54.949Z,22.86
2022-08-22T17:34:51.388Z,22.85
2022-08-22T17:37:52.123Z,22.81
2022-08-22T17:40:46.776Z,22.82
2022-08-22T17:43:33.595Z,22.84
2022-08-22T17:46:42.630Z,22.84
2022-08-22T17:49:14.423Z,22.84
2022-08-22T17:51:48.984Z,22.83
2022-08-22T17:54:32.305Z,22.82
2022-08-22T17:57:09.945Z,22.82
2022-08-22T17:59:49.111Z,22.83
2022-08-22T18:02:34.326Z,22.81
2022-08-22T18:05:32.488Z,22.80
2022-08-22T18:11:16.100Z,22.73
2022-08-22T18:13:46.804Z,22.70
2022-08-22T18:16:44.682Z,22.66
2022-08-22T18:19:14.078Z,22.60
2022-08-22T18:21:50.755Z,22.57
2022-08-22T18:24:33.075Z,22.56
2022-08-22T18:27:09.542Z,22.56
2022-08-22T18:30:05.169Z,22.54
2022-08-22T18:32:59.696Z,22.51
2022-08-22T18:35:40.432Z,22.51
2022-08-22T18:38:19.672Z,22.53
2022-08-22T18:41:05.676Z,22.54
2022-08-22T18:43:44.672Z,22.54
2022-08-22T18:46:34.948Z,22.51
2022-08-22T18:49:15.532Z,22.51
2022-08-22T18:51:44.181Z,22.51
2022-08-22T18:54:42.966Z,22.50
2022-08-22T18:57:31.120Z,22.51
2022-08-22T19:00:29.752Z,22.50
2022-08-22T19:03:15.186Z,22.50
2022-08-22T19:06:07.396Z,22.47
2022-08-22T19:09:05.561Z,22.47
2022-08-22T19:11:51.273Z,22.46
2022-08-22T19:14:36.668Z,22.46
2022-08-22T19:17:29.865Z,22.45
2022-08-22T19:20:15.134Z,22.43
2022-08-22T19:22:43.776Z,22.42
2022-08-22T19:25:27.458Z,22.42
2022-08-22T19:27:57.573Z,22.42
2022-08-22T19:30:51.814Z,22.41
2022-08-22T19:33:38.743Z,22.37
2022-08-22T19:36:07.765Z,22.35
2022-08-22T19:38:58.904Z,22.32
2022-08-22T19:41:38.385Z,22.30
2022-08-22T19:44:11.383Z,22.28
2022-08-22T19:46:42.676Z,22.27
2022-08-22T19:49:32.916Z,22.25
2022-08-22T19:52:37.786Z,22.25
2022-08-22T19:55:10.897Z,22.24
2022-08-22T19:58:03.484Z,22.23
2022-08-22T20:00:53.927Z,22.22
2022-08-22T20:03:39.638Z,22.22
2022-08-22T20:06:43.093Z,22.17
2022-08-22T20:09:43.141Z,22.14
2022-08-22T20:12:36.532Z,22.09
2022-08-22T20:15:19.721Z,22.06
2022-08-22T20:18:11.563Z,22.01
2022-08-22T20:20:56.754Z,22.01
2022-08-22T20:23:29.994Z,21.98
2022-08-22T20:25:57.970Z,21.96
2022-08-22T20:28:28.575Z,21.95
2022-08-22T20:31:00.031Z,21.94
2022-08-22T20:33:41.819Z,21.94
2022-08-22T20:36:18.491Z,21.92
2022-08-22T20:39:00.880Z,21.87
2022-08-22T20:41:33.894Z,21.88
2022-08-22T20:44:07.058Z,21.84
2022-08-22T20:46:55.049Z,21.82
2022-08-22T20:49:30.611Z,21.80
2022-08-22T20:52:10.521Z,21.79
2022-08-22T20:54:40.395Z,21.76
2022-08-22T20:57:18.872Z,21.75
2022-08-22T20:59:59.706Z,21.77
2022-08-22T21:02:57.307Z,21.79
2022-08-22T21:05:34.069Z,21.79
2022-08-22T21:08:05.781Z,21.79
2022-08-22T21:10:54.098Z,21.77
2022-08-22T21:13:36.004Z,21.78
2022-08-22T21:16:18.505Z,21.78
2022-08-22T21:18:50.951Z,21.77
2022-08-22T21:21:18.221Z,21.78
2022-08-22T21:24:01.333Z,21.79
2022-08-22T21:26:38.177Z,21.77
2022-08-22T21:29:07.629Z,21.76
2022-08-22T21:31:42.526Z,21.77
2022-08-22T21:34:32.123Z,21.77
2022-08-22T21:37:06.979Z,21.76
2022-08-22T21:39:45.001Z,21.75
2022-08-22T21:42:24.365Z,21.73
2022-08-22T21:45:00.746Z,21.69
2022-08-22T21:47:30.444Z,21.65
2022-08-22T21:50:09.156Z,21.59
2022-08-22T21:52:38.824Z,21.55
2022-08-22T21:55:32.807Z,21.54
2022-08-22T21:58:18.533Z,21.52
2022-08-22T22:01:25.067Z,21.55
2022-08-22T22:03:54.610Z,21.58
2022-08-22T22:06:21.697Z,21.59
2022-08-22T22:08:49.263Z,21.60
2022-08-22T22:11:17.478Z,21.61
2022-08-22T22:13:45.293Z,21.61
2022-08-22T22:16:12.903Z,21.62
2022-08-22T22:18:40.933Z,21.64
2022-08-22T22:21:09.155Z,21.63
2022-08-22T22:23:36.401Z,21.62
2022-08-22T22:26:06.190Z,21.62
2022-08-22T22:28:38.360Z,21.63
2022-08-22T22:31:06.443Z,21.61
2022-08-22T22:33:40.537Z,21.60
2022-08-22T22:36:11.590Z,21.61
2022-08-22T22:38:40.441Z,21.60
2022-08-22T22:41:07.792Z,21.57
2022-08-22T22:43:35.210Z,21.55
2022-08-22T22:46:02.689Z,21.54
2022-08-22T22:48:29.764Z,21.52
2022-08-22T22:50:56.903Z,21.50
2022-08-22T22:53:38.450Z,21.46
2022-08-22T22:56:09.642Z,21.41
2022-08-22T22:58:37.579Z,21.38
2022-08-22T23:01:14.249Z,21.37
2022-08-22T23:03:42.023Z,21.36
2022-08-22T23:06:18.850Z,21.33
2022-08-22T23:08:46.854Z,21.27
2022-08-22T23:11:17.443Z,21.25
2022-08-22T23:13:44.542Z,21.22
2022-08-22T23:16:15.572Z,21.18
2022-08-22T23:18:43.166Z,21.14
2022-08-22T23:21:23.335Z,21.14
2022-08-22T23:23:51.654Z,21.14
2022-08-22T23:26:18.788Z,21.15
2022-08-22T23:28:45.908Z,21.17
2022-08-22T23:31:38.065Z,21.18
2022-08-22T23:34:07.403Z,21.18
2022-08-22T23:36:35.578Z,21.19
2022-08-22T23:39:04.831Z,21.18
2022-08-22T23:41:32.226Z,21.14
2022-08-22T23:43:59.244Z,21.13
2022-08-22T23:46:27.430Z,21.12
2022-08-22T23:48:54.834Z,21.08
2022-08-22T23:51:24.530Z,21.07
2022-08-22T23:53:52.794Z,21.04
2022-08-22T23:56:26.190Z,21.04
2022-08-22T23:58:53.477Z,21.04
